Time;durP1;ratioP1;P1;durP2;ratioP2;P2;SDS_P1;SDS_P2;PMS_P1;PMS_P2;Temp;Humidity;BMP_temperature;BMP_pressure;BME280_temperature;BME280_humidity;BME280_pressure;Samples;Min_cycle;Max_cycle;Signal;HPM_P1;HPM_P2
2021/04/13 00:00:33;;;;;;;11.48;6.95;;;1.60;80.20;;;;;;4977547;28;20105;-74
2021/04/13 00:03:07;;;;;;;11.07;6.32;;;1.60;80.20;;;;;;4967908;28;20492;-73
2021/04/13 00:05:44;;;;;;;9.43;7.25;;;1.50;80.20;;;;;;4976667;28;20061;-74
2021/04/13 00:08:19;;;;;;;13.57;7.18;;;1.50;80.40;;;;;;4994589;28;20030;-74
2021/04/13 00:10:56;;;;;;;10.38;7.00;;;1.50;80.50;;;;;;4977291;28;20034;-74
2021/04/13 00:13:24;;;;;;;9.25;6.97;;;1.50;80.30;;;;;;4994664;28;20034;-74
2021/04/13 00:15:53;;;;;;;9.75;6.78;;;1.40;80.30;;;;;;4977093;28;20125;-74
2021/04/13 00:18:32;;;;;;;9.00;6.65;;;1.40;80.40;;;;;;4976306;28;20022;-73
2021/04/13 00:21:36;;;;;;;11.27;6.40;;;1.40;80.50;;;;;;4977006;28;20061;-75
2021/04/13 00:24:06;;;;;;;8.07;6.60;;;1.40;80.60;;;;;;4899594;29;20041;-75
2021/04/13 00:26:32;;;;;;;7.13;5.80;;;1.40;80.60;;;;;;4965086;28;20387;-76
2021/04/13 00:29:01;;;;;;;13.48;7.32;;;1.40;80.60;;;;;;4977066;28;20026;-74
2021/04/13 00:31:40;;;;;;;10.10;6.35;;;1.30;80.50;;;;;;4977066;28;20053;-73
2021/04/13 00:34:21;;;;;;;11.00;7.30;;;1.30;80.50;;;;;;4994341;28;20026;-73
2021/04/13 00:36:48;;;;;;;10.60;7.10;;;1.30;80.70;;;;;;4977054;28;20026;-76
2021/04/13 00:39:27;;;;;;;10.30;6.75;;;1.30;80.70;;;;;;4976977;28;20033;-76
2021/04/13 00:42:03;;;;;;;9.98;6.30;;;1.30;80.60;;;;;;4976955;28;20028;-76
2021/04/13 00:44:33;;;;;;;11.38;7.10;;;1.40;80.30;;;;;;4978062;28;20034;-76
2021/04/13 00:47:01;;;;;;;11.75;6.32;;;1.30;80.10;;;;;;4976750;28;20056;-75
2021/04/13 00:49:31;;;;;;;9.75;6.57;;;1.30;80.30;;;;;;4976745;28;20045;-75
2021/04/13 00:52:01;;;;;;;7.97;6.10;;;1.20;80.30;;;;;;4976678;28;20038;-76
2021/04/13 00:54:46;;;;;;;13.00;6.38;;;1.20;80.40;;;;;;4993877;28;20034;-75
2021/04/13 00:57:19;;;;;;;6.20;4.65;;;1.20;80.60;;;;;;4994232;28;20157;-75
2021/04/13 00:59:47;;;;;;;9.93;6.30;;;1.30;80.60;;;;;;4976567;28;20034;-74
2021/04/13 01:02:19;;;;;;;11.20;6.55;;;1.40;80.40;;;;;;4976392;28;20480;-75
2021/04/13 01:05:00;;;;;;;9.75;6.95;;;1.40;80.00;;;;;;4972943;28;20043;-75
2021/04/13 01:07:33;;;;;;;9.90;6.97;;;1.30;79.80;;;;;;4972657;28;20031;-75
2021/04/13 01:10:27;;;;;;;11.07;6.75;;;1.30;79.60;;;;;;4975618;28;20118;-76
2021/04/13 01:13:11;;;;;;;9.75;6.43;;;1.20;79.30;;;;;;4973835;28;20075;-76
2021/04/13 01:15:38;;;;;;;10.45;6.70;;;1.20;79.70;;;;;;4972678;28;20026;-74
2021/04/13 01:18:07;;;;;;;10.15;6.40;;;1.10;79.90;;;;;;4973523;28;20034;-75
2021/04/13 01:20:44;;;;;;;12.52;7.63;;;1.00;80.90;;;;;;4973782;28;20142;-75
2021/04/13 01:23:16;;;;;;;9.88;6.93;;;1.10;80.20;;;;;;4973333;28;20039;-75
2021/04/13 01:25:48;;;;;;;9.38;6.38;;;1.10;80.10;;;;;;4957331;28;20129;-75
2021/04/13 01:28:21;;;;;;;12.68;7.00;;;1.10;79.90;;;;;;4972308;28;20031;-75
2021/04/13 01:31:41;;;;;;;10.18;6.80;;;1.00;79.90;;;;;;4973276;28;20030;-75
2021/04/13 01:34:33;;;;;;;9.85;6.35;;;1.00;80.10;;;;;;4973474;28;20504;-75
2021/04/13 01:37:35;;;;;;;10.18;4.80;;;1.00;80.40;;;;;;4959994;28;20042;-75
2021/04/13 01:42:31;;;;;;;8.70;6.18;;;1.00;80.50;;;;;;4973828;28;20089;-75
2021/04/13 01:45:05;;;;;;;10.95;6.60;;;0.90;80.70;;;;;;4974318;28;20027;-74
2021/04/13 01:47:31;;;;;;;9.55;5.65;;;0.90;80.90;;;;;;4973457;28;20027;-75
2021/04/13 01:50:02;;;;;;;10.43;6.50;;;1.00;80.90;;;;;;4973887;28;20492;-74
2021/04/13 01:52:35;;;;;;;9.40;6.68;;;1.00;80.60;;;;;;4974859;28;20063;-74
2021/04/13 01:55:28;;;;;;;11.23;7.70;;;1.00;80.20;;;;;;4973287;28;20428;-74
2021/04/13 01:58:09;;;;;;;10.38;6.63;;;1.00;79.90;;;;;;4972289;28;20419;-74
2021/04/13 02:00:49;;;;;;;9.57;5.95;;;1.00;79.90;;;;;;4973525;28;20382;-75
2021/04/13 02:03:26;;;;;;;12.48;6.97;;;0.90;79.90;;;;;;4971818;28;20034;-76
2021/04/13 02:05:57;;;;;;;9.77;5.97;;;0.90;79.80;;;;;;4961256;28;749857;-75
2021/04/13 02:08:37;;;;;;;11.30;6.85;;;0.90;79.90;;;;;;4976051;28;20031;-74
2021/04/13 02:11:15;;;;;;;10.85;6.72;;;0.70;80.10;;;;;;4975687;28;20081;-74
2021/04/13 02:13:59;;;;;;;9.68;6.28;;;0.70;80.20;;;;;;4993442;28;20034;-75
2021/04/13 02:16:31;;;;;;;9.80;6.50;;;0.70;80.20;;;;;;4975971;28;20025;-75
2021/04/13 02:18:59;;;;;;;10.32;6.85;;;0.60;80.30;;;;;;4976035;28;20414;-75
2021/04/13 02:21:31;;;;;;;9.00;6.55;;;0.60;80.60;;;;;;4975541;28;20398;-75
2021/04/13 02:24:03;;;;;;;10.18;6.72;;;0.50;80.90;;;;;;4993221;28;20034;-76
2021/04/13 02:26:30;;;;;;;11.02;6.97;;;0.50;81.20;;;;;;4975930;28;20065;-76
2021/04/13 02:28:57;;;;;;;9.20;7.00;;;0.50;81.10;;;;;;4975601;28;20050;-75
2021/04/13 02:31:48;;;;;;;13.57;7.57;;;0.60;80.90;;;;;;4993035;28;20026;-75
2021/04/13 02:34:24;;;;;;;10.35;7.05;;;0.40;80.70;;;;;;4993532;28;20030;-75
2021/04/13 02:36:54;;;;;;;10.18;7.68;;;0.40;80.90;;;;;;4976140;28;20523;-75
2021/04/13 02:39:24;;;;;;;13.85;8.07;;;0.40;81.60;;;;;;4977436;28;20554;-75
2021/04/13 02:42:04;;;;;;;11.40;7.28;;;0.40;81.70;;;;;;4999055;28;20110;-75
2021/04/13 02:44:30;;;;;;;11.85;7.13;;;0.50;81.80;;;;;;4980144;28;20029;-76
2021/04/13 02:46:59;;;;;;;11.48;6.93;;;0.50;81.60;;;;;;4983631;28;20022;-76
2021/04/13 02:49:27;;;;;;;10.57;6.88;;;0.50;81.20;;;;;;4985353;28;20023;-76
2021/04/13 02:52:03;;;;;;;14.93;7.50;;;0.50;81.00;;;;;;4963903;28;20088;-76
2021/04/13 02:54:35;;;;;;;9.35;6.22;;;0.40;80.80;;;;;;4980105;28;20046;-76
2021/04/13 02:57:09;;;;;;;12.40;6.75;;;0.40;80.90;;;;;;5000012;28;20033;-77
2021/04/13 02:59:52;;;;;;;10.32;7.05;;;0.40;81.00;;;;;;4978963;28;20030;-76
2021/04/13 03:02:42;;;;;;;11.25;6.78;;;0.30;81.00;;;;;;4979455;28;20087;-75
2021/04/13 03:05:13;;;;;;;12.27;6.53;;;0.40;81.10;;;;;;4979113;28;20455;-75
2021/04/13 03:07:40;;;;;;;11.43;7.05;;;0.30;80.90;;;;;;5000521;28;20509;-75
2021/04/13 03:10:15;;;;;;;11.05;6.93;;;0.30;80.90;;;;;;4979655;28;20109;-75
2021/04/13 03:12:46;;;;;;;11.52;7.22;;;0.40;80.90;;;;;;4996052;28;20049;-75
2021/04/13 03:15:16;;;;;;;10.05;7.40;;;0.40;81.00;;;;;;4978536;28;20026;-74
2021/04/13 03:17:50;;;;;;;13.00;7.28;;;0.30;81.00;;;;;;4978036;28;20075;-75
2021/04/13 03:20:21;;;;;;;13.57;7.22;;;0.40;81.00;;;;;;4978110;28;20030;-74
2021/04/13 03:22:49;;;;;;;14.15;7.40;;;0.30;80.90;;;;;;4978332;28;20074;-75
2021/04/13 03:25:15;;;;;;;14.35;8.27;;;0.40;80.80;;;;;;4995481;28;20054;-75
2021/04/13 03:27:43;;;;;;;11.77;7.82;;;0.30;80.80;;;;;;4995584;28;20061;-74
2021/04/13 03:30:15;;;;;;;13.82;8.40;;;0.30;81.00;;;;;;4977970;28;20057;-75
2021/04/13 03:32:58;;;;;;;14.35;7.45;;;0.30;81.00;;;;;;4978007;28;20070;-75
2021/04/13 03:35:27;;;;;;;10.45;7.82;;;0.20;80.80;;;;;;4978235;28;20027;-76
2021/04/13 03:38:04;;;;;;;10.40;8.10;;;0.20;80.80;;;;;;4977916;28;20073;-75
2021/04/13 03:40:33;;;;;;;17.23;8.65;;;0.20;80.90;;;;;;4995354;28;20018;-75
2021/04/13 03:43:04;;;;;;;16.08;8.40;;;0.20;80.90;;;;;;4995549;28;20511;-77
2021/04/13 03:45:31;;;;;;;15.98;9.02;;;0.20;81.00;;;;;;4977841;28;20491;-76
2021/04/13 03:48:02;;;;;;;15.07;8.32;;;0.10;81.10;;;;;;4977698;28;20030;-75
2021/04/13 03:50:30;;;;;;;11.98;8.00;;;0.20;80.90;;;;;;4977755;28;20034;-76
2021/04/13 03:53:10;;;;;;;11.98;8.07;;;0.20;80.80;;;;;;4994198;28;20498;-75
2021/04/13 03:55:36;;;;;;;14.13;9.02;;;0.20;80.80;;;;;;4977405;28;20031;-76
2021/04/13 03:58:20;;;;;;;12.95;8.50;;;0.20;80.60;;;;;;4977499;28;20023;-76
2021/04/13 04:00:46;;;;;;;11.40;8.43;;;0.30;80.60;;;;;;4994953;28;20045;-76
2021/04/13 04:03:13;;;;;;;11.77;8.55;;;0.30;80.50;;;;;;4977615;28;20479;-75
2021/04/13 04:05:56;;;;;;;12.88;8.38;;;0.30;80.60;;;;;;4977205;28;20487;-75
2021/04/13 04:08:29;;;;;;;16.83;8.57;;;0.40;80.50;;;;;;4977563;28;20062;-75
2021/04/13 04:10:55;;;;;;;14.18;8.95;;;0.40;80.10;;;;;;4994719;28;20023;-75
2021/04/13 04:13:32;;;;;;;12.45;8.38;;;0.40;79.30;;;;;;4994875;28;20030;-75
2021/04/13 04:16:28;;;;;;;11.55;8.35;;;0.30;79.20;;;;;;4977224;28;20034;-74
2021/04/13 04:18:54;;;;;;;13.82;8.40;;;0.40;79.10;;;;;;4977270;28;20046;-75
2021/04/13 04:21:33;;;;;;;19.58;8.63;;;0.30;78.60;;;;;;4977186;28;20100;-73
2021/04/13 04:24:09;;;;;;;16.77;10.15;;;0.20;78.40;;;;;;4977068;28;20127;-74
2021/04/13 04:26:47;;;;;;;20.58;10.93;;;0.20;78.70;;;;;;4994558;28;20080;-74
2021/04/13 04:29:21;;;;;;;18.55;11.00;;;0.10;79.20;;;;;;4977271;28;20448;-75
2021/04/13 04:31:48;;;;;;;18.85;11.32;;;0.20;79.60;;;;;;4976657;28;20041;-74
2021/04/13 04:34:13;;;;;;;21.77;12.00;;;0.20;79.80;;;;;;4977045;28;20029;-74
2021/04/13 04:36:51;;;;;;;19.02;10.55;;;0.20;79.90;;;;;;4976921;28;20034;-75
2021/04/13 04:39:36;;;;;;;15.55;10.07;;;0.30;80.70;;;;;;4976748;28;20387;-75
2021/04/13 04:42:29;;;;;;;22.42;10.90;;;0.40;79.90;;;;;;4976922;28;20027;-75
2021/04/13 04:45:35;;;;;;;26.85;13.00;;;0.40;79.60;;;;;;4987960;28;20082;-74
2021/04/13 04:48:24;;;;;;;30.88;12.95;;;0.40;79.10;;;;;;4918338;29;20140;-74
2021/04/13 04:50:52;;;;;;;23.40;12.35;;;0.40;78.90;;;;;;4918162;29;20136;-74
2021/04/13 04:53:19;;;;;;;25.30;12.18;;;0.40;78.60;;;;;;4956636;28;20399;-75
2021/04/13 04:55:51;;;;;;;27.85;12.27;;;0.40;78.20;;;;;;4976551;28;20022;-75
2021/04/13 04:58:27;;;;;;;21.98;11.27;;;0.40;77.80;;;;;;4993986;28;20026;-74
2021/04/13 05:00:54;;;;;;;19.58;10.05;;;0.40;77.70;;;;;;4993960;28;20097;-74
2021/04/13 05:03:21;;;;;;;16.85;10.48;;;0.40;77.50;;;;;;4993948;28;20041;-73
2021/04/13 05:05:48;;;;;;;20.67;11.27;;;0.50;77.40;;;;;;4976047;28;20050;-73
2021/04/13 05:08:13;;;;;;;20.65;10.60;;;0.50;77.50;;;;;;4976435;28;20045;-73
2021/04/13 05:10:39;;;;;;;17.52;10.40;;;0.50;77.50;;;;;;4993749;28;20480;-73
2021/04/13 05:13:06;;;;;;;16.92;9.93;;;0.60;77.40;;;;;;4993735;28;20551;-77
2021/04/13 05:15:32;;;;;;;20.08;10.52;;;0.60;77.20;;;;;;4976212;28;20114;-75
2021/04/13 05:17:58;;;;;;;20.85;11.25;;;0.70;76.90;;;;;;4993301;28;20133;-73
2021/04/13 05:20:24;;;;;;;19.38;10.82;;;0.70;77.10;;;;;;4975920;28;20488;-73
2021/04/13 05:22:50;;;;;;;20.33;11.05;;;0.70;76.20;;;;;;4975907;28;20073;-73
2021/04/13 05:25:16;;;;;;;19.08;10.93;;;0.70;76.10;;;;;;4993306;28;20029;-74
2021/04/13 05:27:42;;;;;;;16.00;10.20;;;0.80;76.00;;;;;;4975761;28;20058;-73
2021/04/13 05:30:10;;;;;;;18.77;10.52;;;0.90;76.10;;;;;;4975638;28;20458;-73
2021/04/13 05:32:37;;;;;;;14.75;9.50;;;1.00;75.70;;;;;;4975619;28;20030;-73
2021/04/13 05:35:04;;;;;;;17.63;10.40;;;1.00;75.50;;;;;;4975446;28;20027;-76
2021/04/13 05:37:31;;;;;;;16.83;10.02;;;1.10;75.00;;;;;;4992724;28;20049;-74
2021/04/13 05:39:57;;;;;;;17.73;10.60;;;1.20;74.60;;;;;;4993090;28;20081;-76
2021/04/13 05:42:29;;;;;;;15.45;9.27;;;1.20;74.30;;;;;;4975681;28;20026;-75
2021/04/13 05:44:56;;;;;;;14.23;9.27;;;1.20;74.10;;;;;;4975657;28;20057;-74
2021/04/13 05:47:28;;;;;;;17.15;10.50;;;1.30;74.20;;;;;;4993077;28;20030;-75
2021/04/13 05:49:54;;;;;;;15.05;8.23;;;1.40;74.00;;;;;;4975599;28;20018;-74
2021/04/13 05:52:19;;;;;;;15.60;9.85;;;1.50;73.80;;;;;;4975554;28;20503;-74
2021/04/13 05:54:47;;;;;;;13.57;9.13;;;1.50;73.70;;;;;;4975409;28;20480;-75
2021/04/13 05:57:18;;;;;;;13.35;9.07;;;1.60;73.50;;;;;;4975629;28;20365;-74
2021/04/13 05:59:44;;;;;;;16.15;9.50;;;1.70;74.30;;;;;;4975220;28;20034;-74
2021/04/13 06:02:16;;;;;;;17.65;10.30;;;1.70;73.30;;;;;;4975484;28;20026;-75
2021/04/13 06:04:42;;;;;;;15.02;9.43;;;1.80;73.00;;;;;;4974959;28;20066;-74
2021/04/13 06:07:09;;;;;;;20.50;10.68;;;1.80;72.90;;;;;;4975548;28;20076;-74
2021/04/13 06:09:35;;;;;;;17.27;11.13;;;1.90;72.70;;;;;;4975510;28;20022;-74
2021/04/13 06:12:01;;;;;;;35.70;16.20;;;1.80;72.20;;;;;;4975514;28;20080;-75
2021/04/13 06:14:28;;;;;;;26.88;12.65;;;1.90;72.50;;;;;;4975519;28;20033;-74
2021/04/13 06:16:54;;;;;;;22.52;13.15;;;2.00;72.00;;;;;;4976156;28;20078;-74
2021/04/13 06:19:20;;;;;;;19.77;11.23;;;2.00;71.50;;;;;;4978977;28;20034;-75
2021/04/13 06:21:46;;;;;;;18.75;11.13;;;2.00;71.20;;;;;;4979069;28;20471;-74
2021/04/13 06:24:12;;;;;;;20.30;10.77;;;2.10;71.30;;;;;;4979540;28;20083;-74
2021/04/13 06:26:38;;;;;;;14.45;9.43;;;2.20;71.10;;;;;;5008731;28;20019;-76
2021/04/13 06:29:04;;;;;;;16.58;10.27;;;2.20;71.00;;;;;;5006279;28;20033;-75
2021/04/13 06:31:30;;;;;;;15.65;10.30;;;2.30;71.10;;;;;;4981487;28;20105;-77
2021/04/13 06:33:56;;;;;;;15.55;9.38;;;2.40;70.90;;;;;;4979671;28;20102;-78
2021/04/13 06:36:24;;;;;;;17.58;10.93;;;2.50;70.80;;;;;;4962992;28;20108;-76
2021/04/13 06:38:51;;;;;;;13.90;9.60;;;2.60;70.40;;;;;;4962710;28;20038;-76
2021/04/13 06:41:54;;;;;;;13.60;8.95;;;2.70;70.40;;;;;;4978911;28;20037;-75
2021/04/13 06:44:55;;;;;;;15.00;10.07;;;2.70;70.30;;;;;;4978794;28;20037;-75
2021/04/13 06:47:42;;;;;;;16.52;10.80;;;2.60;70.90;;;;;;4978486;28;20049;-76
2021/04/13 06:50:35;;;;;;;16.88;10.75;;;2.60;71.80;;;;;;4978630;28;20030;-75
2021/04/13 06:53:39;;;;;;;14.38;9.85;;;2.50;72.80;;;;;;4978540;28;20085;-75
2021/04/13 06:56:43;;;;;;;13.75;10.13;;;2.50;73.50;;;;;;4978462;28;20045;-76
2021/04/13 06:59:35;;;;;;;16.13;10.55;;;2.40;74.70;;;;;;4939145;29;20027;-77
2021/04/13 07:02:05;;;;;;;14.02;10.02;;;2.40;74.80;;;;;;4955623;29;20135;-75
2021/04/13 07:04:34;;;;;;;13.00;10.07;;;2.60;74.30;;;;;;4954931;29;20059;-74
2021/04/13 07:07:07;;;;;;;15.20;9.68;;;2.70;73.80;;;;;;4938689;29;20035;-74
2021/04/13 07:09:56;;;;;;;12.45;9.18;;;2.90;73.30;;;;;;4939603;29;20035;-75
2021/04/13 07:12:36;;;;;;;15.32;10.32;;;3.00;72.80;;;;;;4944353;29;20043;-74
2021/04/13 07:15:13;;;;;;;14.57;10.80;;;3.10;72.10;;;;;;4939877;29;20035;-75
2021/04/13 07:17:58;;;;;;;13.32;9.07;;;3.10;71.80;;;;;;4955026;29;20070;-74
2021/04/13 07:20:35;;;;;;;12.38;9.70;;;3.10;72.00;;;;;;4938836;29;20039;-75
2021/04/13 07:23:19;;;;;;;13.88;9.90;;;3.20;72.10;;;;;;4938605;29;20115;-75
2021/04/13 07:26:08;;;;;;;20.60;11.68;;;3.40;72.10;;;;;;4938534;29;20042;-75
2021/04/13 07:28:56;;;;;;;12.70;9.90;;;3.50;71.60;;;;;;4954854;28;20028;-75
2021/04/13 07:31:42;;;;;;;16.52;10.73;;;3.60;71.30;;;;;;4995755;28;20030;-75
2021/04/13 07:34:08;;;;;;;14.25;10.23;;;3.50;71.40;;;;;;4978065;28;20022;-75
2021/04/13 07:36:57;;;;;;;12.43;8.88;;;3.50;71.70;;;;;;4977603;28;20073;-74
2021/04/13 07:39:26;;;;;;;16.50;10.90;;;3.60;71.50;;;;;;4978112;28;20117;-76
2021/04/13 07:42:24;;;;;;;17.70;11.32;;;3.70;71.10;;;;;;4976910;28;20440;-75
2021/04/13 07:45:05;;;;;;;15.98;11.75;;;3.80;71.00;;;;;;4995491;28;20081;-74
2021/04/13 07:47:59;;;;;;;16.08;10.48;;;3.80;70.40;;;;;;4995114;28;20101;-74
2021/04/13 07:51:00;;;;;;;17.30;10.02;;;3.90;70.70;;;;;;4995489;28;20487;-74
2021/04/13 07:53:28;;;;;;;14.63;10.98;;;4.30;70.40;;;;;;4995368;28;20062;-75
2021/04/13 07:56:18;;;;;;;15.52;11.07;;;4.30;69.10;;;;;;4994748;28;20375;-78
2021/04/13 07:58:48;;;;;;;21.48;11.15;;;4.50;69.00;;;;;;4977504;28;20033;-75
2021/04/13 08:01:15;;;;;;;14.85;10.60;;;4.20;68.70;;;;;;4977338;28;20483;-79
2021/04/13 08:03:41;;;;;;;20.38;10.85;;;4.00;69.20;;;;;;4977520;28;20049;-76
2021/04/13 08:06:29;;;;;;;14.60;10.52;;;4.20;69.40;;;;;;4994681;28;20054;-78
2021/04/13 08:09:33;;;;;;;33.35;12.00;;;4.40;69.60;;;;;;4994474;28;20479;-74
2021/04/13 08:12:03;;;;;;;22.08;12.43;;;5.60;90.20;;;;;;4974037;28;20038;-76
2021/04/13 08:14:36;;;;;;;35.28;14.32;;;6.20;91.20;;;;;;4977648;28;20045;-75
2021/04/13 08:17:14;;;;;;;27.23;11.50;;;6.60;83.20;;;;;;4983672;28;20041;-77
2021/04/13 08:19:42;;;;;;;16.77;10.10;;;7.00;76.20;;;;;;4977679;28;20141;-74
2021/04/13 08:22:19;;;;;;;16.40;8.52;;;7.30;72.70;;;;;;4976562;28;20108;-76
2021/04/13 08:24:46;;;;;;;13.70;8.20;;;7.70;68.80;;;;;;4976667;28;20030;-74
2021/04/13 08:27:47;;;;;;;10.95;7.95;;;7.80;66.20;;;;;;4976926;28;20030;-74
2021/04/13 08:32:50;;;;;;;10.52;7.80;;;8.10;65.90;;;;;;4976737;28;20054;-75
2021/04/13 08:33:41;;;;;;;9.15;7.32;;;8.20;61.70;;;;;;4991508;28;20040;-77
2021/04/13 08:36:15;;;;;;;11.52;6.75;;;8.70;60.30;;;;;;4976510;28;20041;-75
2021/04/13 08:38:56;;;;;;;9.30;6.70;;;8.80;59.80;;;;;;4976684;28;20033;-74
2021/04/13 08:41:45;;;;;;;8.70;6.35;;;8.90;58.10;;;;;;4994747;28;20022;-75
2021/04/13 08:44:26;;;;;;;10.35;6.95;;;8.80;55.70;;;;;;4996013;28;20030;-77
2021/04/13 08:47:38;;;;;;;8.15;5.72;;;8.70;55.30;;;;;;5000964;28;20390;-77
2021/04/13 08:50:19;;;;;;;6.68;4.82;;;8.90;56.10;;;;;;4990945;28;20030;-76
2021/04/13 08:52:54;;;;;;;7.70;5.00;;;9.40;55.90;;;;;;4994701;28;20035;-77
2021/04/13 08:55:46;;;;;;;6.03;4.72;;;9.50;53.80;;;;;;4983228;28;20109;-77
2021/04/13 08:58:23;;;;;;;6.43;5.07;;;9.30;52.20;;;;;;4968705;28;20400;-77
2021/04/13 09:00:55;;;;;;;8.88;5.38;;;9.30;53.40;;;;;;4994072;28;20030;-76
2021/04/13 09:03:25;;;;;;;8.25;5.72;;;9.20;51.30;;;;;;4980699;28;20351;-75
2021/04/13 09:06:26;;;;;;;9.82;7.05;;;8.90;50.20;;;;;;4997461;28;20048;-75
2021/04/13 09:09:27;;;;;;;7.88;5.57;;;8.50;49.40;;;;;;4970430;28;20101;-76
2021/04/13 09:12:14;;;;;;;8.20;6.10;;;8.30;49.80;;;;;;4953160;28;20038;-75
2021/04/13 09:15:20;;;;;;;9.35;6.13;;;8.10;50.40;;;;;;4977987;28;20050;-76
2021/04/13 09:18:08;;;;;;;9.70;6.13;;;7.90;50.80;;;;;;4985634;28;20398;-75
2021/04/13 09:20:38;;;;;;;8.18;6.45;;;7.70;51.80;;;;;;4998060;28;20419;-75
2021/04/13 09:23:03;;;;;;;10.77;6.63;;;7.70;52.60;;;;;;4997376;28;20026;-75
2021/04/13 09:25:43;;;;;;;7.82;6.20;;;7.70;52.50;;;;;;4976947;28;20030;-76
2021/04/13 09:28:15;;;;;;;12.40;7.55;;;7.80;52.50;;;;;;4976788;28;20495;-76
2021/04/13 09:30:43;;;;;;;8.88;6.00;;;7.80;52.60;;;;;;4976733;28;20033;-74
2021/04/13 09:33:18;;;;;;;6.90;5.20;;;7.70;52.40;;;;;;4976067;28;20039;-75
2021/04/13 09:36:11;;;;;;;5.73;4.50;;;7.80;51.80;;;;;;4977450;28;20072;-76
2021/04/13 09:38:58;;;;;;;8.05;6.22;;;7.80;51.20;;;;;;4976126;28;20026;-73
2021/04/13 09:41:52;;;;;;;6.95;5.20;;;7.80;51.10;;;;;;4993569;28;20050;-73
2021/04/13 09:44:31;;;;;;;6.85;4.80;;;8.10;50.50;;;;;;4993252;28;20037;-73
2021/04/13 09:47:29;;;;;;;5.28;4.65;;;8.50;49.90;;;;;;4993196;28;20022;-73
2021/04/13 09:50:20;;;;;;;8.30;5.50;;;8.60;49.30;;;;;;4993097;28;20109;-74
2021/04/13 09:53:16;;;;;;;7.20;5.28;;;8.50;48.40;;;;;;4996992;28;20038;-73
2021/04/13 09:55:44;;;;;;;8.18;4.93;;;8.90;48.50;;;;;;4997183;28;20027;-75
2021/04/13 09:58:55;;;;;;;7.60;5.25;;;8.80;47.50;;;;;;4997441;28;20109;-73
2021/04/13 10:01:33;;;;;;;8.65;4.90;;;8.80;46.70;;;;;;4927466;28;20036;-75
2021/04/13 10:04:22;;;;;;;8.93;5.20;;;8.90;46.90;;;;;;4997014;28;20027;-74
2021/04/13 10:07:16;;;;;;;6.25;4.50;;;9.10;46.50;;;;;;4996798;28;20054;-74
2021/04/13 10:09:44;;;;;;;6.82;5.43;;;9.40;45.80;;;;;;4998864;28;20114;-73
2021/04/13 10:12:48;;;;;;;9.00;6.15;;;8.90;45.90;;;;;;4999214;28;20031;-75
2021/04/13 10:15:16;;;;;;;9.18;7.60;;;8.20;46.30;;;;;;4981421;28;20026;-75
2021/04/13 10:17:57;;;;;;;9.27;7.45;;;7.20;50.10;;;;;;4981985;28;20026;-75
2021/04/13 10:20:29;;;;;;;13.52;8.55;;;6.90;52.80;;;;;;4982137;28;20118;-76
2021/04/13 10:23:13;;;;;;;12.02;7.72;;;6.60;54.70;;;;;;4998793;28;20563;-75
2021/04/13 10:25:56;;;;;;;13.05;9.35;;;6.30;56.90;;;;;;4997676;28;20034;-75
2021/04/13 10:28:43;;;;;;;14.80;9.77;;;6.10;58.60;;;;;;4980080;28;20058;-73
2021/04/13 10:31:36;;;;;;;13.10;8.10;;;6.20;59.30;;;;;;4979877;28;20026;-74
2021/04/13 10:34:33;;;;;;;8.85;7.60;;;6.30;58.70;;;;;;4979233;28;20445;-74
2021/04/13 10:36:59;;;;;;;10.45;7.47;;;6.40;56.10;;;;;;4997013;28;20167;-74
2021/04/13 10:39:44;;;;;;;10.25;7.57;;;6.50;55.00;;;;;;4979427;28;20092;-74
2021/04/13 10:42:40;;;;;;;11.30;6.77;;;6.80;53.70;;;;;;4978341;28;20443;-74
2021/04/13 10:45:27;;;;;;;7.60;6.38;;;7.30;52.40;;;;;;4979554;28;20510;-75
2021/04/13 10:48:01;;;;;;;8.52;5.88;;;8.00;52.30;;;;;;4996209;28;20041;-75
2021/04/13 10:50:33;;;;;;;5.68;4.90;;;8.80;49.00;;;;;;4996061;28;20391;-73
2021/04/13 10:53:17;;;;;;;7.22;4.82;;;9.40;47.00;;;;;;4978514;28;20038;-73
2021/04/13 10:56:05;;;;;;;6.45;5.25;;;9.90;45.70;;;;;;4978495;28;20037;-76
2021/04/13 10:58:49;;;;;;;7.13;4.97;;;10.20;42.90;;;;;;4978657;28;20026;-76
2021/04/13 11:01:37;;;;;;;5.80;4.75;;;10.40;42.50;;;;;;4980742;28;20106;-77
2021/04/13 11:04:44;;;;;;;5.50;4.63;;;10.70;41.60;;;;;;4982726;28;20057;-75
2021/04/13 11:07:28;;;;;;;6.95;5.47;;;10.40;40.40;;;;;;4995918;28;20030;-74
2021/04/13 11:10:17;;;;;;;9.88;5.47;;;9.80;41.20;;;;;;4978360;28;20061;-74
2021/04/13 11:12:54;;;;;;;7.25;5.78;;;9.60;43.00;;;;;;4995651;28;20035;-74
2021/04/13 11:15:53;;;;;;;10.00;7.93;;;9.50;44.50;;;;;;4982154;28;20026;-75
2021/04/13 11:18:56;;;;;;;7.78;6.47;;;9.10;46.10;;;;;;4991428;28;20113;-74
2021/04/13 11:21:47;;;;;;;8.70;6.57;;;8.60;47.70;;;;;;4999982;28;20041;-76
2021/04/13 11:24:50;;;;;;;7.55;5.68;;;8.30;49.80;;;;;;4981627;28;20018;-76
2021/04/13 11:27:40;;;;;;;8.38;6.28;;;8.10;50.30;;;;;;4978693;28;20031;-75
2021/04/13 11:30:28;;;;;;;8.70;6.80;;;8.00;50.20;;;;;;4978335;28;20026;-75
2021/04/13 11:33:26;;;;;;;8.15;6.25;;;8.00;50.30;;;;;;4978178;28;20510;-75
2021/04/13 11:35:58;;;;;;;7.53;5.72;;;8.20;50.40;;;;;;4995325;28;20037;-75
2021/04/13 11:38:45;;;;;;;6.30;5.50;;;8.50;50.40;;;;;;4995571;28;20041;-75
2021/04/13 11:41:39;;;;;;;7.03;5.85;;;8.80;48.10;;;;;;4978188;28;20121;-75
2021/04/13 11:44:53;;;;;;;8.05;5.78;;;9.10;48.10;;;;;;4977765;28;20022;-74
2021/04/13 11:47:43;;;;;;;8.70;6.22;;;9.00;47.30;;;;;;4971055;28;20065;-73
2021/04/13 11:50:27;;;;;;;10.20;7.22;;;9.00;48.60;;;;;;4977662;28;20019;-74
2021/04/13 11:53:06;;;;;;;8.30;7.00;;;8.90;49.50;;;;;;4977590;28;20043;-74
2021/04/13 11:55:38;;;;;;;9.00;6.88;;;8.80;50.00;;;;;;4977685;28;20026;-74
2021/04/13 11:58:23;;;;;;;6.72;5.78;;;8.70;49.60;;;;;;4977454;28;20510;-74
2021/04/13 12:00:51;;;;;;;6.75;6.00;;;8.50;48.20;;;;;;4977536;28;20023;-76
2021/04/13 12:03:34;;;;;;;7.57;5.00;;;8.30;47.60;;;;;;4977643;28;20030;-74
2021/04/13 12:06:03;;;;;;;7.07;5.50;;;8.00;45.50;;;;;;4994664;28;20057;-76
2021/04/13 12:08:29;;;;;;;6.45;5.43;;;8.20;45.70;;;;;;4977528;28;20018;-74
2021/04/13 12:10:58;;;;;;;5.10;4.50;;;8.60;45.40;;;;;;4976879;28;20502;-75
2021/04/13 12:13:47;;;;;;;9.50;4.90;;;9.30;44.80;;;;;;4977027;28;20121;-75
2021/04/13 12:16:21;;;;;;;6.45;3.60;;;10.20;43.40;;;;;;4977205;28;20022;-74
2021/04/13 12:19:07;;;;;;;4.53;3.58;;;11.10;41.60;;;;;;4978250;28;20061;-75
2021/04/13 12:21:39;;;;;;;6.97;3.78;;;11.90;38.60;;;;;;4994263;28;20022;-75
2021/04/13 12:24:37;;;;;;;3.40;3.00;;;12.20;36.60;;;;;;4994282;28;20451;-75
2021/04/13 12:27:28;;;;;;;3.95;3.38;;;12.50;35.70;;;;;;4977078;28;20403;-76
2021/04/13 12:30:25;;;;;;;4.82;4.32;;;12.30;34.90;;;;;;4994466;28;20032;-75
2021/04/13 12:32:52;;;;;;;7.22;5.05;;;12.10;34.80;;;;;;4976678;28;20034;-76
2021/04/13 12:35:46;;;;;;;5.20;4.43;;;11.70;34.50;;;;;;4976924;28;20088;-75
2021/04/13 12:38:43;;;;;;;5.82;4.00;;;11.20;34.80;;;;;;4942535;28;20038;-75
2021/04/13 12:41:29;;;;;;;8.55;4.70;;;10.80;35.70;;;;;;4976525;28;20057;-75
2021/04/13 12:44:22;;;;;;;6.20;5.13;;;10.60;36.50;;;;;;4994193;28;20018;-76
2021/04/13 12:46:50;;;;;;;7.13;5.30;;;10.80;37.10;;;;;;4994329;28;20030;-73
2021/04/13 12:49:31;;;;;;;11.70;5.25;;;11.10;38.10;;;;;;4994025;28;20049;-75
2021/04/13 12:52:13;;;;;;;5.90;4.55;;;11.50;39.10;;;;;;4976309;28;20046;-77
2021/04/13 12:54:44;;;;;;;9.68;5.10;;;12.00;39.80;;;;;;4976481;28;20035;-75
2021/04/13 12:57:20;;;;;;;6.03;4.80;;;12.30;38.40;;;;;;4976907;28;20391;-76
2021/04/13 12:59:49;;;;;;;4.45;3.83;;;12.50;37.60;;;;;;4996453;28;20077;-77
2021/04/13 13:02:31;;;;;;;4.90;3.70;;;12.70;37.60;;;;;;4978403;28;20085;-75
2021/04/13 13:04:57;;;;;;;4.00;3.58;;;12.90;36.30;;;;;;4976452;28;20065;-75
2021/04/13 13:07:28;;;;;;;4.55;3.70;;;12.70;34.60;;;;;;4976215;28;20522;-75
2021/04/13 13:09:54;;;;;;;4.30;3.50;;;12.40;33.60;;;;;;4976550;28;20026;-74
2021/04/13 13:12:27;;;;;;;3.60;2.97;;;11.80;32.60;;;;;;4944311;28;20176;-76
2021/04/13 13:15:02;;;;;;;5.07;4.40;;;11.80;32.30;;;;;;4976392;28;20018;-75
2021/04/13 13:17:35;;;;;;;4.57;3.97;;;11.80;31.80;;;;;;4976173;28;20026;-75
2021/04/13 13:20:02;;;;;;;4.80;4.07;;;11.90;31.10;;;;;;4993509;28;20033;-74
2021/04/13 13:22:30;;;;;;;6.88;4.88;;;12.10;30.30;;;;;;4993503;28;20476;-75
2021/04/13 13:25:13;;;;;;;5.28;4.78;;;12.20;29.70;;;;;;4959992;28;20034;-76
2021/04/13 13:27:39;;;;;;;6.65;5.57;;;12.20;29.20;;;;;;4975742;28;20448;-75
2021/04/13 13:30:08;;;;;;;5.93;5.32;;;11.60;29.50;;;;;;4975953;28;20026;-74
2021/04/13 13:32:35;;;;;;;5.40;4.80;;;11.10;30.30;;;;;;4993259;28;20105;-76
2021/04/13 13:35:08;;;;;;;6.82;5.60;;;11.20;30.90;;;;;;4993023;28;20712;-74
2021/04/13 13:37:39;;;;;;;6.75;4.95;;;11.30;31.10;;;;;;4975619;28;20462;-75
2021/04/13 13:40:10;;;;;;;8.60;5.70;;;11.50;31.20;;;;;;4975637;28;20118;-77
2021/04/13 13:42:39;;;;;;;8.18;5.57;;;11.40;30.90;;;;;;4975886;28;20109;-75
2021/04/13 13:45:07;;;;;;;7.53;5.90;;;11.20;31.30;;;;;;4993203;28;20105;-73